createdAt,value
2022-09-01T00:01:46.539Z,92.16
2022-09-01T00:04:18.661Z,92.06
2022-09-01T00:06:45.597Z,91.66
2022-09-01T00:09:15.467Z,91.38
2022-09-01T00:11:47.929Z,91.19
2022-09-01T00:14:30.652Z,91.22
2022-09-01T00:16:59.996Z,91.40
2022-09-01T00:19:26.921Z,91.23
2022-09-01T00:21:53.547Z,91.14
2022-09-01T00:24:20.284Z,91.54
2022-09-01T00:26:47.811Z,92.00
2022-09-01T00:29:15.633Z,92.42
2022-09-01T00:31:42.484Z,92.00
2022-09-01T00:34:09.137Z,91.76
2022-09-01T00:36:36.603Z,91.80
2022-09-01T00:39:05.555Z,91.68
2022-09-01T00:41:34.269Z,91.59
2022-09-01T00:44:06.878Z,91.65
2022-09-01T00:46:47.757Z,91.74
2022-09-01T00:49:46.636Z,91.97
2022-09-01T00:52:18.589Z,91.61
2022-09-01T00:54:49.953Z,91.31
2022-09-01T00:57:17.054Z,91.31
2022-09-01T00:59:57.724Z,91.71
2022-09-01T01:02:25.085Z,91.93
2022-09-01T01:04:52.147Z,91.72
2022-09-01T01:07:22.291Z,91.79
2022-09-01T01:09:49.979Z,91.87
2022-09-01T01:12:17.706Z,92.27
2022-09-01T01:14:47.396Z,92.33
2022-09-01T01:17:14.113Z,92.09
2022-09-01T01:20:01.445Z,91.92
2022-09-01T01:22:58.601Z,91.96
2022-09-01T01:25:26.358Z,92.04
2022-09-01T01:28:11.036Z,92.32
2022-09-01T01:30:41.432Z,92.58
2022-09-01T01:33:09.511Z,92.97
2022-09-01T01:35:41.793Z,93.20
2022-09-01T01:38:09.335Z,92.94
2022-09-01T01:40:37.681Z,93.09
2022-09-01T01:43:05.286Z,93.90
2022-09-01T01:45:32.185Z,93.80
2022-09-01T01:48:02.873Z,93.57
2022-09-01T01:50:35.078Z,93.51
2022-09-01T01:53:04.317Z,93.91
2022-09-01T01:55:41.327Z,93.44
2022-09-01T01:58:09.307Z,93.31
2022-09-01T02:00:37.254Z,93.19
2022-09-01T02:03:04.707Z,93.50
2022-09-01T02:05:35.343Z,93.60
2022-09-01T02:08:06.046Z,93.33
2022-09-01T02:10:38.605Z,93.37
2022-09-01T02:13:06.694Z,93.31
2022-09-01T02:15:41.831Z,93.45
2022-09-01T02:18:10.368Z,93.48
2022-09-01T02:20:37.514Z,93.46
2022-09-01T02:23:10.131Z,93.40
2022-09-01T02:26:05.195Z,93.48
2022-09-01T02:28:34.457Z,93.33
2022-09-01T02:31:02.140Z,93.31
2022-09-01T02:33:31.696Z,93.35
2022-09-01T02:36:02.456Z,93.60
2022-09-01T02:38:32.497Z,93.72
2022-09-01T02:41:02.984Z,94.39
2022-09-01T02:43:31.123Z,94.90
2022-09-01T02:46:00.632Z,94.92
2022-09-01T02:48:35.845Z,94.87
2022-09-01T02:51:16.021Z,94.48
2022-09-01T02:53:46.190Z,94.80
2022-09-01T02:56:13.737Z,94.79
2022-09-01T02:58:45.815Z,94.56
2022-09-01T03:01:26.847Z,94.34
2022-09-01T03:03:56.925Z,94.29
2022-09-01T03:06:24.825Z,94.88
2022-09-01T03:08:54.434Z,95.36
2022-09-01T03:11:23.242Z,95.77
2022-09-01T03:13:50.973Z,95.38
2022-09-01T03:16:18.441Z,95.39
2022-09-01T03:18:45.043Z,95.15
2022-09-01T03:21:16.530Z,95.02
2022-09-01T03:23:45.546Z,95.07
2022-09-01T03:26:14.518Z,95.19
2022-09-01T03:28:41.243Z,95.19
2022-09-01T03:31:08.912Z,95.24
2022-09-01T03:33:36.260Z,95.04
2022-09-01T03:36:05.009Z,94.96
2022-09-01T03:38:43.313Z,95.04
2022-09-01T03:41:12.481Z,95.38
2022-09-01T03:43:46.014Z,95.27
2022-09-01T03:46:19.596Z,95.28
2022-09-01T03:48:55.171Z,95.10
2022-09-01T03:51:23.316Z,95.05
2022-09-01T03:53:56.933Z,95.11
2022-09-01T03:56:28.944Z,94.93
2022-09-01T03:58:58.302Z,94.72
2022-09-01T04:01:27.732Z,94.75
2022-09-01T04:03:55.231Z,94.67
2022-09-01T04:06:30.327Z,94.88
2022-09-01T04:09:02.004Z,95.00
2022-09-01T04:11:32.931Z,95.21
2022-09-01T04:14:00.467Z,94.61
2022-09-01T04:16:52.674Z,94.05
2022-09-01T04:19:26.462Z,93.59
2022-09-01T04:21:59.258Z,93.42
2022-09-01T04:24:32.074Z,93.26
2022-09-01T04:27:01.590Z,93.12
2022-09-01T04:29:30.847Z,93.14
2022-09-01T04:32:12.079Z,93.10
2022-09-01T04:34:41.145Z,92.88
2022-09-01T04:37:20.907Z,92.81
2022-09-01T04:39:56.877Z,92.97
2022-09-01T04:42:28.646Z,93.09
2022-09-01T04:44:56.832Z,93.12
2022-09-01T04:47:29.548Z,92.94
2022-09-01T04:49:59.744Z,93.08
2022-09-01T04:52:27.748Z,92.97
2022-09-01T04:54:54.801Z,92.78
2022-09-01T04:57:22.061Z,92.57
2022-09-01T04:59:48.844Z,92.52
2022-09-01T05:02:16.155Z,92.67
2022-09-01T05:04:45.863Z,92.61
2022-09-01T05:07:13.602Z,92.69
2022-09-01T05:09:40.226Z,92.42
2022-09-01T05:12:40.626Z,92.33
2022-09-01T05:15:09.147Z,91.87
2022-09-01T05:17:37.914Z,91.70
2022-09-01T05:20:05.732Z,91.83
2022-09-01T05:22:35.069Z,91.62
2022-09-01T05:25:12.647Z,91.36
2022-09-01T05:27:48.929Z,91.23
2022-09-01T05:30:18.010Z,91.34
2022-09-01T05:32:48.553Z,91.48
2022-09-01T05:35:15.566Z,91.08
2022-09-01T05:37:42.863Z,90.80
2022-09-01T05:40:15.417Z,90.39
2022-09-01T05:42:45.912Z,90.06
2022-09-01T05:45:13.668Z,89.66
2022-09-01T05:47:41.286Z,87.70
2022-09-01T05:50:14.354Z,87.91
2022-09-01T05:52:47.307Z,88.04
2022-09-01T05:55:14.688Z,85.98
2022-09-01T05:57:42.510Z,85.71
2022-09-01T06:00:13.468Z,85.52
2022-09-01T06:02:42.231Z,83.98
2022-09-01T06:05:13.367Z,82.23
2022-09-01T06:07:42.227Z,82.91
2022-09-01T06:10:10.093Z,82.10
2022-09-01T06:12:37.194Z,79.06
2022-09-01T06:15:06.635Z,78.20
2022-09-01T06:17:35.894Z,78.49
2022-09-01T06:20:09.934Z,77.68
2022-09-01T06:22:38.967Z,77.47
2022-09-01T06:25:08.276Z,76.96
2022-09-01T06:27:43.798Z,74.94
2022-09-01T06:30:23.164Z,74.08
2022-09-01T06:33:00.673Z,72.82
2022-09-01T06:35:29.344Z,72.69
2022-09-01T06:37:57.886Z,72.78
2022-09-01T06:40:39.257Z,70.95
2022-09-01T06:43:11.438Z,70.88
2022-09-01T06:45:42.497Z,71.02
2022-09-01T06:48:15.273Z,70.08
2022-09-01T06:53:32.794Z,68.23
2022-09-01T06:56:02.389Z,67.03
2022-09-01T06:58:30.724Z,67.23
2022-09-01T07:00:57.564Z,66.86
2022-09-01T07:03:25.875Z,67.16
2022-09-01T07:06:59.075Z,65.89
2022-09-01T07:09:38.797Z,65.21
2022-09-01T07:12:26.635Z,64.67
2022-09-01T07:17:53.674Z,64.90
2022-09-01T07:20:24.551Z,65.02
2022-09-01T07:23:09.226Z,65.51
2022-09-01T07:26:02.229Z,65.66
2022-09-01T07:28:37.156Z,66.51
2022-09-01T07:33:54.547Z,67.41
2022-09-01T07:36:29.041Z,66.19
2022-09-01T07:48:02.701Z,64.49
2022-09-01T07:50:41.301Z,64.42
2022-09-01T07:53:30.870Z,64.20
2022-09-01T07:56:08.922Z,63.82
2022-09-01T07:58:41.340Z,63.33
2022-09-01T08:01:10.866Z,63.40
2022-09-01T08:03:40.837Z,63.05
2022-09-01T08:06:10.315Z,61.95
2022-09-01T08:08:39.408Z,61.61
2022-09-01T08:11:08.335Z,60.16
2022-09-01T08:13:42.015Z,59.05
2022-09-01T08:16:18.539Z,57.52
2022-09-01T08:18:49.381Z,57.16
2022-09-01T08:21:32.271Z,56.56
2022-09-01T08:24:01.917Z,57.10
2022-09-01T08:26:29.744Z,55.86
2022-09-01T08:28:56.665Z,54.42
2022-09-01T08:31:37.302Z,52.18
2022-09-01T08:34:04.970Z,49.86
2022-09-01T08:36:32.395Z,49.42
2022-09-01T08:38:59.407Z,50.08
2022-09-01T08:41:28.604Z,50.11
2022-09-01T08:44:10.371Z,50.13
2022-09-01T08:46:42.480Z,50.36
2022-09-01T08:49:25.843Z,49.58
2022-09-01T08:53:10.317Z,49.86
2022-09-01T08:55:46.913Z,49.49
2022-09-01T08:58:17.517Z,49.22
2022-09-01T09:01:11.650Z,49.11
2022-09-01T09:04:17.100Z,48.94
2022-09-01T09:07:10.248Z,48.34
2022-09-01T09:09:54.209Z,48.39
2022-09-01T09:12:50.769Z,48.60
2022-09-01T09:15:39.484Z,47.43
2022-09-01T09:18:39.922Z,47.83
2022-09-01T09:21:23.459Z,46.44
2022-09-01T09:24:22.693Z,46.08
2022-09-01T09:26:51.508Z,45.04
2022-09-01T09:29:20.013Z,44.65
2022-09-01T09:31:49.902Z,43.09
2022-09-01T09:34:38.411Z,43.48
2022-09-01T09:37:20.594Z,43.89
2022-09-01T09:40:08.568Z,44.56
2022-09-01T09:43:01.635Z,45.04
2022-09-01T09:45:33.656Z,44.75
2022-09-01T09:48:07.135Z,45.12
2022-09-01T09:50:40.568Z,45.42
2022-09-01T09:53:25.681Z,45.25
2022-09-01T09:56:23.713Z,44.37
2022-09-01T09:58:52.372Z,44.42
2022-09-01T10:01:21.762Z,44.37
2022-09-01T10:03:54.345Z,44.16
2022-09-01T10:06:45.408Z,44.56
2022-09-01T10:09:33.751Z,44.47
2022-09-01T10:12:01.554Z,44.16
2022-09-01T10:14:51.800Z,43.65
2022-09-01T10:17:37.838Z,41.49
2022-09-01T10:20:20.705Z,41.28
2022-09-01T10:22:49.682Z,40.92
2022-09-01T10:25:21.330Z,41.13
2022-09-01T10:28:23.907Z,39.64
2022-09-01T10:30:53.342Z,38.42
2022-09-01T10:33:22.324Z,38.32
2022-09-01T10:35:52.015Z,38.11
2022-09-01T10:38:20.510Z,38.38
2022-09-01T10:41:06.534Z,38.12
2022-09-01T10:43:48.399Z,38.21
2022-09-01T10:46:38.971Z,38.04
2022-09-01T10:49:46.450Z,37.59
2022-09-01T10:52:41.532Z,36.46
2022-09-01T10:55:25.425Z,36.23
2022-09-01T10:58:09.594Z,36.96
2022-09-01T11:03:53.597Z,37.32
2022-09-01T11:09:42.998Z,38.09
2022-09-01T11:12:42.867Z,37.94
2022-09-01T11:15:16.934Z,38.06
2022-09-01T11:17:52.628Z,38.21
2022-09-01T11:20:28.414Z,38.80
2022-09-01T11:23:07.247Z,39.15
2022-09-01T11:25:39.680Z,39.16
2022-09-01T11:28:14.364Z,39.09
2022-09-01T11:30:51.321Z,39.41
2022-09-01T11:33:42.715Z,39.80
2022-09-01T11:36:25.405Z,40.26
2022-09-01T11:39:03.128Z,40.22
2022-09-01T11:41:35.427Z,40.30
2022-09-01T11:44:11.126Z,40.75
2022-09-01T11:46:38.381Z,40.99
2022-09-01T11:49:22.478Z,41.36
2022-09-01T11:51:49.253Z,41.66
2022-09-01T11:54:16.127Z,42.05
2022-09-01T11:56:43.002Z,42.05
2022-09-01T11:59:10.402Z,42.01
2022-09-01T12:01:39.920Z,42.29
2022-09-01T12:04:23.911Z,42.09
2022-09-01T12:07:01.720Z,42.54
2022-09-01T12:09:38.305Z,42.11
2022-09-01T12:12:07.402Z,42.27
2022-09-01T12:14:55.016Z,42.93
2022-09-01T12:17:21.318Z,42.86
2022-09-01T12:19:48.044Z,42.52
2022-09-01T12:22:20.949Z,42.71
2022-09-01T12:24:56.087Z,42.61
2022-09-01T12:27:22.722Z,42.98
2022-09-01T12:29:51.121Z,42.98
2022-09-01T12:32:19.256Z,43.07
2022-09-01T12:34:58.626Z,43.25
2022-09-01T12:37:26.638Z,43.66
2022-09-01T12:39:56.934Z,44.01
2022-09-01T12:42:40.607Z,44.39
2022-09-01T12:45:09.542Z,44.47
2022-09-01T12:47:36.582Z,44.56
2022-09-01T12:50:12.437Z,44.45
2022-09-01T12:53:12.751Z,44.58
2022-09-01T12:55:55.094Z,44.27
2022-09-01T12:58:25.258Z,44.57
2022-09-01T13:01:16.918Z,44.83
2022-09-01T13:04:24.168Z,45.34
2022-09-01T13:06:52.923Z,45.88
2022-09-01T13:09:19.598Z,46.20
2022-09-01T13:12:06.265Z,46.82
2022-09-01T13:14:33.504Z,48.23
2022-09-01T13:17:00.667Z,49.11
2022-09-01T13:19:30.223Z,50.43
2022-09-01T13:21:57.746Z,52.84
2022-09-01T13:24:29.347Z,55.61
2022-09-01T13:29:45.112Z,58.58
2022-09-01T13:32:20.775Z,59.91
2022-09-01T13:34:52.003Z,61.39
2022-09-01T13:37:20.666Z,62.41
2022-09-01T13:39:47.940Z,63.11
2022-09-01T13:42:16.153Z,62.94
2022-09-01T13:44:44.146Z,63.79
2022-09-01T13:50:09.203Z,64.51
2022-09-01T13:52:38.889Z,65.65
2022-09-01T13:55:07.237Z,66.55
2022-09-01T13:57:36.587Z,67.60
2022-09-01T14:00:16.602Z,67.79
2022-09-01T14:02:52.478Z,68.18
2022-09-01T14:05:24.999Z,69.19
2022-09-01T14:07:52.804Z,69.86
2022-09-01T14:10:21.531Z,70.25
2022-09-01T14:12:49.709Z,70.85
2022-09-01T14:15:22.711Z,71.17
2022-09-01T14:17:55.944Z,71.55
2022-09-01T14:20:26.536Z,71.93
2022-09-01T14:22:54.274Z,72.77
2022-09-01T14:25:21.366Z,73.55
2022-09-01T14:27:49.296Z,74.44
2022-09-01T14:30:20.152Z,76.79
2022-09-01T14:32:46.883Z,77.50
2022-09-01T14:35:14.777Z,78.03
2022-09-01T14:37:41.593Z,78.57
2022-09-01T14:40:16.725Z,77.83
2022-09-01T14:42:48.496Z,77.51
2022-09-01T14:45:18.037Z,77.73
2022-09-01T14:47:50.002Z,77.47
2022-09-01T14:50:22.727Z,77.62
2022-09-01T14:52:55.841Z,78.07
2022-09-01T14:55:24.901Z,77.95
2022-09-01T14:57:52.106Z,78.15
2022-09-01T15:00:19.197Z,78.16
2022-09-01T15:02:47.092Z,78.60
2022-09-01T15:05:14.578Z,78.58
2022-09-01T15:07:42.516Z,78.26
2022-09-01T15:10:11.673Z,77.78
2022-09-01T15:12:43.032Z,78.10
2022-09-01T15:15:09.792Z,79.39
2022-09-01T15:17:36.488Z,79.51
2022-09-01T15:20:24.024Z,79.51
2022-09-01T15:22:51.087Z,80.34
2022-09-01T15:25:18.107Z,82.17
2022-09-01T15:28:06.485Z,83.00
2022-09-01T15:30:34.800Z,83.49
2022-09-01T15:33:02.819Z,83.45
2022-09-01T15:35:30.387Z,83.94
2022-09-01T15:37:57.597Z,83.81
2022-09-01T15:40:25.595Z,84.07
2022-09-01T15:42:52.536Z,84.73
2022-09-01T15:45:21.564Z,85.26
2022-09-01T15:47:48.808Z,86.11
2022-09-01T15:50:21.702Z,86.40
2022-09-01T15:52:54.516Z,86.84
2022-09-01T15:55:24.808Z,87.07
2022-09-01T15:57:54.382Z,87.47
2022-09-01T16:00:23.330Z,87.51
2022-09-01T16:02:51.135Z,87.84
2022-09-01T16:05:18.041Z,87.79
2022-09-01T16:07:45.375Z,88.15
2022-09-01T16:10:13.763Z,88.57
2022-09-01T16:12:46.008Z,88.18
2022-09-01T16:15:16.472Z,88.29
2022-09-01T16:17:58.448Z,88.25
2022-09-01T16:20:35.121Z,87.78
2022-09-01T16:23:19.602Z,88.39
2022-09-01T16:25:47.294Z,88.15
2022-09-01T16:28:20.315Z,87.77
2022-09-01T16:30:51.381Z,87.49
2022-09-01T16:33:21.042Z,88.14
2022-09-01T16:36:11.184Z,88.96
2022-09-01T16:38:53.389Z,88.33
2022-09-01T16:41:44.740Z,88.84
2022-09-01T16:44:33.649Z,88.86
2022-09-01T16:47:25.458Z,88.39
2022-09-01T16:50:16.199Z,88.37
2022-09-01T16:53:02.276Z,88.19
2022-09-01T16:55:44.214Z,87.98
2022-09-01T16:58:24.121Z,88.07
2022-09-01T17:00:53.985Z,87.63
2022-09-01T17:03:43.796Z,87.08
2022-09-01T17:06:51.516Z,86.89
2022-09-01T17:09:32.734Z,86.83
2022-09-01T17:12:22.731Z,86.84
2022-09-01T17:14:55.813Z,86.82
2022-09-01T17:17:32.719Z,87.07
2022-09-01T17:20:02.520Z,87.31
2022-09-01T17:22:31.127Z,87.17
2022-09-01T17:25:17.472Z,87.22
2022-09-01T17:27:58.846Z,87.18
2022-09-01T17:30:25.797Z,87.49
2022-09-01T17:33:17.339Z,87.30
2022-09-01T17:36:10.506Z,87.33
2022-09-01T17:38:47.594Z,87.33
2022-09-01T17:41:34.204Z,87.32
2022-09-01T17:44:20.737Z,87.49
2022-09-01T17:46:54.448Z,87.53
2022-09-01T17:49:21.219Z,87.33
2022-09-01T17:52:12.595Z,87.36
2022-09-01T17:55:02.118Z,87.58
2022-09-01T17:57:44.336Z,87.49
2022-09-01T18:00:17.728Z,87.48
2022-09-01T18:03:18.653Z,87.56
2022-09-01T18:05:59.160Z,87.68
2022-09-01T18:08:30.438Z,87.78
2022-09-01T18:11:18.337Z,87.77
2022-09-01T18:13:53.382Z,87.83
2022-09-01T18:16:26.434Z,88.42
2022-09-01T18:18:54.044Z,88.11
2022-09-01T18:21:25.967Z,88.60
2022-09-01T18:24:05.504Z,88.31
2022-09-01T18:26:38.772Z,88.30
2022-09-01T18:29:06.646Z,88.60
2022-09-01T18:31:33.666Z,88.66
2022-09-01T18:34:09.840Z,88.51
2022-09-01T18:36:53.616Z,88.44
2022-09-01T18:39:32.541Z,88.42
2022-09-01T18:42:26.812Z,88.53
2022-09-01T18:45:04.808Z,88.72
2022-09-01T18:47:40.049Z,88.82
2022-09-01T18:50:15.932Z,88.83
2022-09-01T18:52:49.074Z,89.82
2022-09-01T18:55:30.388Z,90.20
2022-09-01T18:58:05.750Z,90.65
2022-09-01T19:00:38.723Z,91.16
2022-09-01T19:03:13.310Z,91.22
2022-09-01T19:05:52.791Z,91.70
2022-09-01T19:08:31.630Z,91.87
2022-09-01T19:11:10.669Z,91.57
2022-09-01T19:14:05.570Z,91.58
2022-09-01T19:17:04.039Z,91.73
2022-09-01T19:19:40.516Z,91.99
2022-09-01T19:22:09.454Z,92.23
2022-09-01T19:24:46.183Z,92.46
2022-09-01T19:27:21.052Z,92.69
2022-09-01T19:29:56.170Z,92.88
2022-09-01T19:32:26.786Z,92.87
2022-09-01T19:34:58.467Z,93.01
2022-09-01T19:37:25.769Z,92.85
2022-09-01T19:39:54.425Z,93.06
2022-09-01T19:42:33.842Z,92.69
2022-09-01T19:45:19.777Z,92.63
2022-09-01T19:47:55.707Z,92.60
2022-09-01T19:50:38.365Z,92.70
2022-09-01T19:53:26.901Z,92.63
2022-09-01T19:55:57.787Z,92.38
2022-09-01T19:58:34.918Z,92.50
2022-09-01T20:01:05.194Z,92.75
2022-09-01T20:04:09.162Z,92.75
2022-09-01T20:06:42.099Z,92.25
2022-09-01T20:09:19.048Z,92.21
2022-09-01T20:12:08.270Z,91.99
2022-09-01T20:14:48.761Z,91.85
2022-09-01T20:17:40.789Z,92.07
2022-09-01T20:20:16.410Z,92.20
2022-09-01T20:22:50.579Z,92.37
2022-09-01T20:25:21.337Z,92.18
2022-09-01T20:28:00.991Z,92.09
2022-09-01T20:30:40.418Z,92.36
2022-09-01T20:33:34.515Z,92.46
2022-09-01T20:36:27.776Z,92.91
2022-09-01T20:39:21.182Z,93.08
2022-09-01T20:41:55.613Z,93.04
2022-09-01T20:44:43.090Z,93.20
2022-09-01T20:47:11.973Z,93.24
2022-09-01T20:49:38.835Z,93.43
2022-09-01T20:52:17.897Z,94.31
2022-09-01T20:55:10.976Z,94.44
2022-09-01T20:57:47.704Z,94.51
2022-09-01T21:00:25.388Z,94.68
2022-09-01T21:03:36.204Z,95.13
2022-09-01T21:06:22.221Z,95.79
2022-09-01T21:09:01.481Z,95.99
2022-09-01T21:11:40.714Z,96.00
2022-09-01T21:14:16.941Z,95.81
2022-09-01T21:17:12.883Z,95.65
2022-09-01T21:19:45.642Z,95.94
2022-09-01T21:22:17.488Z,96.15
2022-09-01T21:24:48.000Z,95.99
2022-09-01T21:27:22.766Z,96.13
2022-09-01T21:29:55.572Z,95.93
2022-09-01T21:32:23.113Z,95.75
2022-09-01T21:34:49.980Z,95.74
2022-09-01T21:37:17.763Z,95.57
2022-09-01T21:39:44.727Z,95.46
2022-09-01T21:42:12.978Z,95.53
2022-09-01T21:44:40.590Z,95.44
2022-09-01T21:47:07.773Z,95.57
2022-09-01T21:49:34.410Z,95.54
2022-09-01T21:52:01.576Z,95.79
2022-09-01T21:54:28.199Z,95.81
2022-09-01T21:56:55.184Z,95.82
2022-09-01T21:59:22.685Z,95.79
2022-09-01T22:01:49.579Z,95.80
2022-09-01T22:04:17.827Z,95.28
2022-09-01T22:06:46.412Z,94.92
2022-09-01T22:09:21.286Z,94.77
2022-09-01T22:11:50.386Z,94.84
2022-09-01T22:14:18.561Z,94.58
2022-09-01T22:16:45.480Z,94.61
2022-09-01T22:19:12.234Z,94.62
2022-09-01T22:21:40.933Z,94.38
2022-09-01T22:24:08.641Z,94.17
2022-09-01T22:26:35.298Z,94.02
2022-09-01T22:29:05.238Z,94.11
2022-09-01T22:31:35.296Z,94.38
2022-09-01T22:34:01.934Z,94.20
2022-09-01T22:36:42.183Z,93.91
2022-09-01T22:39:09.939Z,93.91
2022-09-01T22:41:38.730Z,93.72
2022-09-01T22:44:06.529Z,93.64
2022-09-01T22:46:35.151Z,93.61
2022-09-01T22:49:03.487Z,93.62
2022-09-01T22:51:31.413Z,93.64
2022-09-01T22:53:58.200Z,93.67
2022-09-01T22:56:28.359Z,93.68
2022-09-01T22:58:57.471Z,93.78
2022-09-01T23:01:29.578Z,94.12
2022-09-01T23:04:01.187Z,93.93
2022-09-01T23:06:30.115Z,93.75
2022-09-01T23:09:00.024Z,93.84
2022-09-01T23:11:27.624Z,94.00
2022-09-01T23:13:54.741Z,94.10
2022-09-01T23:16:22.787Z,94.13
2022-09-01T23:18:50.727Z,94.12
2022-09-01T23:21:20.606Z,94.25
2022-09-01T23:23:47.652Z,94.61
2022-09-01T23:26:15.377Z,94.61
2022-09-01T23:28:44.338Z,94.64
2022-09-01T23:31:15.964Z,94.54
2022-09-01T23:33:43.138Z,94.72
2022-09-01T23:36:12.109Z,95.03
2022-09-01T23:38:39.861Z,95.05
2022-09-01T23:41:10.700Z,95.07
2022-09-01T23:43:37.573Z,95.04
2022-09-01T23:46:05.630Z,94.95
2022-09-01T23:48:33.023Z,95.37
2022-09-01T23:51:07.982Z,95.39
2022-09-01T23:53:36.505Z,95.21
2022-09-01T23:56:09.384Z,95.15
2022-09-01T23:58:35.890Z,95.28
